sensor_id;sensor_type;location;lat;lon;timestamp;P1;durP1;ratioP1;P2;durP2;ratioP2
77206;SDS011;66190;50.708;7.906;2023-07-30T00:00:39;5.80;;;2.00;;
77206;SDS011;66190;50.708;7.906;2023-07-30T00:03:04;5.50;;;1.90;;
77206;SDS011;66190;50.708;7.906;2023-07-30T00:05:29;5.22;;;1.80;;
77206;SDS011;66190;50.708;7.906;2023-07-30T00:07:55;5.30;;;2.13;;
77206;SDS011;66190;50.708;7.906;2023-07-30T00:10:20;5.60;;;2.17;;
77206;SDS011;66190;50.708;7.906;2023-07-30T00:12:46;7.63;;;1.73;;
77206;SDS011;66190;50.708;7.906;2023-07-30T00:15:12;5.57;;;2.13;;
77206;SDS011;66190;50.708;7.906;2023-07-30T00:17:38;6.43;;;1.80;;
77206;SDS011;66190;50.708;7.906;2023-07-30T00:20:04;6.77;;;2.10;;
77206;SDS011;66190;50.708;7.906;2023-07-30T00:22:31;9.32;;;2.13;;
77206;SDS011;66190;50.708;7.906;2023-07-30T00:24:56;6.63;;;2.30;;
77206;SDS011;66190;50.708;7.906;2023-07-30T00:27:21;7.63;;;2.10;;
77206;SDS011;66190;50.708;7.906;2023-07-30T00:29:47;6.77;;;2.13;;
77206;SDS011;66190;50.708;7.906;2023-07-30T00:32:12;5.30;;;2.00;;
77206;SDS011;66190;50.708;7.906;2023-07-30T00:34:40;6.03;;;2.37;;
77206;SDS011;66190;50.708;7.906;2023-07-30T00:37:06;5.65;;;2.35;;
77206;SDS011;66190;50.708;7.906;2023-07-30T00:39:31;7.40;;;2.37;;
77206;SDS011;66190;50.708;7.906;2023-07-30T00:41:57;5.37;;;2.03;;
77206;SDS011;66190;50.708;7.906;2023-07-30T00:44:22;5.97;;;2.37;;
77206;SDS011;66190;50.708;7.906;2023-07-30T00:46:47;6.27;;;2.30;;
77206;SDS011;66190;50.708;7.906;2023-07-30T00:49:13;7.32;;;2.53;;
77206;SDS011;66190;50.708;7.906;2023-07-30T00:51:39;6.55;;;2.72;;
77206;SDS011;66190;50.708;7.906;2023-07-30T00:54:06;6.20;;;2.57;;
77206;SDS011;66190;50.708;7.906;2023-07-30T00:56:31;7.10;;;2.63;;
77206;SDS011;66190;50.708;7.906;2023-07-30T00:58:57;6.60;;;2.50;;
77206;SDS011;66190;50.708;7.906;2023-07-30T01:01:22;6.40;;;2.07;;
77206;SDS011;66190;50.708;7.906;2023-07-30T01:03:48;5.80;;;2.20;;
77206;SDS011;66190;50.708;7.906;2023-07-30T01:06:13;6.07;;;2.15;;
77206;SDS011;66190;50.708;7.906;2023-07-30T01:08:39;5.67;;;2.13;;
77206;SDS011;66190;50.708;7.906;2023-07-30T01:11:04;6.73;;;2.33;;
77206;SDS011;66190;50.708;7.906;2023-07-30T01:13:31;6.65;;;2.40;;
77206;SDS011;66190;50.708;7.906;2023-07-30T01:15:58;6.20;;;2.78;;
77206;SDS011;66190;50.708;7.906;2023-07-30T01:18:24;5.87;;;2.10;;
77206;SDS011;66190;50.708;7.906;2023-07-30T01:20:52;6.97;;;2.57;;
77206;SDS011;66190;50.708;7.906;2023-07-30T01:23:18;7.65;;;2.63;;
77206;SDS011;66190;50.708;7.906;2023-07-30T01:25:43;6.93;;;2.50;;
77206;SDS011;66190;50.708;7.906;2023-07-30T01:28:12;6.57;;;2.40;;
77206;SDS011;66190;50.708;7.906;2023-07-30T01:30:42;5.23;;;1.83;;
77206;SDS011;66190;50.708;7.906;2023-07-30T01:33:10;7.75;;;2.20;;
77206;SDS011;66190;50.708;7.906;2023-07-30T01:35:36;6.95;;;2.25;;
77206;SDS011;66190;50.708;7.906;2023-07-30T01:38:02;5.78;;;2.00;;
77206;SDS011;66190;50.708;7.906;2023-07-30T01:40:30;5.72;;;2.13;;
77206;SDS011;66190;50.708;7.906;2023-07-30T01:42:56;6.67;;;2.13;;
77206;SDS011;66190;50.708;7.906;2023-07-30T01:45:22;6.10;;;2.30;;
77206;SDS011;66190;50.708;7.906;2023-07-30T01:47:47;5.93;;;2.10;;
77206;SDS011;66190;50.708;7.906;2023-07-30T01:50:12;7.27;;;2.50;;
77206;SDS011;66190;50.708;7.906;2023-07-30T01:52:38;6.50;;;1.97;;
77206;SDS011;66190;50.708;7.906;2023-07-30T01:55:03;6.00;;;2.50;;
77206;SDS011;66190;50.708;7.906;2023-07-30T01:57:29;6.43;;;2.47;;
77206;SDS011;66190;50.708;7.906;2023-07-30T01:59:54;8.87;;;2.43;;
77206;SDS011;66190;50.708;7.906;2023-07-30T02:02:20;7.27;;;2.30;;
77206;SDS011;66190;50.708;7.906;2023-07-30T02:04:45;6.30;;;2.53;;
77206;SDS011;66190;50.708;7.906;2023-07-30T02:07:11;6.68;;;2.50;;
77206;SDS011;66190;50.708;7.906;2023-07-30T02:09:36;6.57;;;2.30;;
77206;SDS011;66190;50.708;7.906;2023-07-30T02:12:01;6.33;;;2.63;;
77206;SDS011;66190;50.708;7.906;2023-07-30T02:14:27;7.23;;;2.40;;
77206;SDS011;66190;50.708;7.906;2023-07-30T02:16:52;6.83;;;2.37;;
77206;SDS011;66190;50.708;7.906;2023-07-30T02:19:18;5.97;;;2.28;;
77206;SDS011;66190;50.708;7.906;2023-07-30T02:21:43;8.23;;;2.00;;
77206;SDS011;66190;50.708;7.906;2023-07-30T02:24:09;6.17;;;1.87;;
77206;SDS011;66190;50.708;7.906;2023-07-30T02:26:36;6.82;;;2.28;;
77206;SDS011;66190;50.708;7.906;2023-07-30T02:29:03;8.23;;;2.28;;
77206;SDS011;66190;50.708;7.906;2023-07-30T02:31:28;8.13;;;1.90;;
77206;SDS011;66190;50.708;7.906;2023-07-30T02:33:53;6.20;;;2.40;;
77206;SDS011;66190;50.708;7.906;2023-07-30T02:36:19;6.57;;;2.20;;
77206;SDS011;66190;50.708;7.906;2023-07-30T02:38:44;9.63;;;2.37;;
77206;SDS011;66190;50.708;7.906;2023-07-30T02:41:09;6.97;;;1.97;;
77206;SDS011;66190;50.708;7.906;2023-07-30T02:43:35;5.47;;;1.93;;
77206;SDS011;66190;50.708;7.906;2023-07-30T02:46:00;6.20;;;2.30;;
77206;SDS011;66190;50.708;7.906;2023-07-30T02:48:25;7.97;;;2.57;;
77206;SDS011;66190;50.708;7.906;2023-07-30T02:50:51;6.17;;;2.17;;
77206;SDS011;66190;50.708;7.906;2023-07-30T02:53:16;6.57;;;2.47;;
77206;SDS011;66190;50.708;7.906;2023-07-30T02:55:41;5.27;;;1.97;;
77206;SDS011;66190;50.708;7.906;2023-07-30T02:58:07;5.20;;;1.87;;
77206;SDS011;66190;50.708;7.906;2023-07-30T03:00:32;5.13;;;1.73;;
77206;SDS011;66190;50.708;7.906;2023-07-30T03:02:58;5.95;;;2.00;;
77206;SDS011;66190;50.708;7.906;2023-07-30T03:05:23;6.80;;;1.83;;
77206;SDS011;66190;50.708;7.906;2023-07-30T03:07:48;8.53;;;1.77;;
77206;SDS011;66190;50.708;7.906;2023-07-30T03:10:14;7.07;;;2.20;;
77206;SDS011;66190;50.708;7.906;2023-07-30T03:12:39;5.40;;;2.00;;
77206;SDS011;66190;50.708;7.906;2023-07-30T03:15:05;6.10;;;2.20;;
77206;SDS011;66190;50.708;7.906;2023-07-30T03:17:31;5.33;;;1.50;;
77206;SDS011;66190;50.708;7.906;2023-07-30T03:19:56;5.90;;;1.77;;
77206;SDS011;66190;50.708;7.906;2023-07-30T03:22:21;8.17;;;2.23;;
77206;SDS011;66190;50.708;7.906;2023-07-30T03:24:47;7.03;;;2.03;;
77206;SDS011;66190;50.708;7.906;2023-07-30T03:27:12;6.37;;;2.17;;
77206;SDS011;66190;50.708;7.906;2023-07-30T03:29:38;6.13;;;1.98;;
77206;SDS011;66190;50.708;7.906;2023-07-30T03:32:03;6.60;;;1.77;;
77206;SDS011;66190;50.708;7.906;2023-07-30T03:34:29;6.20;;;2.00;;
77206;SDS011;66190;50.708;7.906;2023-07-30T03:36:54;5.97;;;2.10;;
77206;SDS011;66190;50.708;7.906;2023-07-30T03:39:20;5.32;;;1.60;;
77206;SDS011;66190;50.708;7.906;2023-07-30T03:41:45;5.87;;;1.80;;
77206;SDS011;66190;50.708;7.906;2023-07-30T03:44:10;6.53;;;1.80;;
77206;SDS011;66190;50.708;7.906;2023-07-30T03:46:36;7.03;;;1.73;;
77206;SDS011;66190;50.708;7.906;2023-07-30T03:49:01;5.97;;;1.50;;
77206;SDS011;66190;50.708;7.906;2023-07-30T03:51:27;5.03;;;1.60;;
77206;SDS011;66190;50.708;7.906;2023-07-30T03:53:52;4.83;;;1.37;;
77206;SDS011;66190;50.708;7.906;2023-07-30T03:56:17;5.67;;;1.67;;
77206;SDS011;66190;50.708;7.906;2023-07-30T03:58:43;6.23;;;1.47;;
77206;SDS011;66190;50.708;7.906;2023-07-30T04:01:09;4.50;;;1.40;;
77206;SDS011;66190;50.708;7.906;2023-07-30T04:03:34;7.97;;;1.70;;
77206;SDS011;66190;50.708;7.906;2023-07-30T04:06:00;5.77;;;1.63;;
77206;SDS011;66190;50.708;7.906;2023-07-30T04:08:25;6.25;;;1.60;;
77206;SDS011;66190;50.708;7.906;2023-07-30T04:10:50;5.30;;;1.80;;
77206;SDS011;66190;50.708;7.906;2023-07-30T04:13:16;6.67;;;1.73;;
77206;SDS011;66190;50.708;7.906;2023-07-30T04:15:41;5.40;;;1.80;;
77206;SDS011;66190;50.708;7.906;2023-07-30T04:18:06;5.67;;;1.60;;
77206;SDS011;66190;50.708;7.906;2023-07-30T04:20:32;6.30;;;1.70;;
77206;SDS011;66190;50.708;7.906;2023-07-30T04:22:57;6.00;;;1.60;;
77206;SDS011;66190;50.708;7.906;2023-07-30T04:25:23;4.80;;;1.40;;
77206;SDS011;66190;50.708;7.906;2023-07-30T04:27:48;5.87;;;1.73;;
77206;SDS011;66190;50.708;7.906;2023-07-30T04:30:13;6.57;;;1.47;;
77206;SDS011;66190;50.708;7.906;2023-07-30T04:32:39;5.23;;;1.60;;
77206;SDS011;66190;50.708;7.906;2023-07-30T04:35:04;7.23;;;1.80;;
77206;SDS011;66190;50.708;7.906;2023-07-30T04:37:30;6.40;;;1.45;;
77206;SDS011;66190;50.708;7.906;2023-07-30T04:39:56;7.27;;;1.80;;
77206;SDS011;66190;50.708;7.906;2023-07-30T04:42:21;5.93;;;1.83;;
77206;SDS011;66190;50.708;7.906;2023-07-30T04:44:47;6.00;;;1.67;;
77206;SDS011;66190;50.708;7.906;2023-07-30T04:47:12;5.73;;;1.40;;
77206;SDS011;66190;50.708;7.906;2023-07-30T04:49:37;4.60;;;1.40;;
77206;SDS011;66190;50.708;7.906;2023-07-30T04:52:05;5.30;;;1.40;;
77206;SDS011;66190;50.708;7.906;2023-07-30T04:54:32;5.22;;;1.38;;
77206;SDS011;66190;50.708;7.906;2023-07-30T04:56:57;4.70;;;1.50;;
77206;SDS011;66190;50.708;7.906;2023-07-30T04:59:23;4.75;;;1.23;;
77206;SDS011;66190;50.708;7.906;2023-07-30T05:01:48;6.00;;;1.50;;
77206;SDS011;66190;50.708;7.906;2023-07-30T05:04:13;7.20;;;1.63;;
77206;SDS011;66190;50.708;7.906;2023-07-30T05:06:39;6.10;;;1.40;;
77206;SDS011;66190;50.708;7.906;2023-07-30T05:09:04;5.20;;;1.60;;
77206;SDS011;66190;50.708;7.906;2023-07-30T05:11:30;5.15;;;1.48;;
77206;SDS011;66190;50.708;7.906;2023-07-30T05:13:55;4.90;;;1.37;;
77206;SDS011;66190;50.708;7.906;2023-07-30T05:16:21;6.80;;;2.00;;
77206;SDS011;66190;50.708;7.906;2023-07-30T05:18:46;5.30;;;1.60;;
77206;SDS011;66190;50.708;7.906;2023-07-30T05:21:12;5.68;;;1.67;;
77206;SDS011;66190;50.708;7.906;2023-07-30T05:23:37;6.23;;;1.13;;
77206;SDS011;66190;50.708;7.906;2023-07-30T05:26:02;7.40;;;1.50;;
77206;SDS011;66190;50.708;7.906;2023-07-30T05:28:28;4.73;;;1.30;;
77206;SDS011;66190;50.708;7.906;2023-07-30T05:30:53;4.80;;;1.57;;
77206;SDS011;66190;50.708;7.906;2023-07-30T05:33:19;6.13;;;2.30;;
77206;SDS011;66190;50.708;7.906;2023-07-30T05:35:44;6.82;;;1.45;;
77206;SDS011;66190;50.708;7.906;2023-07-30T05:38:10;7.13;;;1.63;;
77206;SDS011;66190;50.708;7.906;2023-07-30T05:40:36;6.60;;;1.80;;
77206;SDS011;66190;50.708;7.906;2023-07-30T05:43:01;6.07;;;1.73;;
77206;SDS011;66190;50.708;7.906;2023-07-30T05:45:27;5.53;;;1.43;;
77206;SDS011;66190;50.708;7.906;2023-07-30T05:47:53;6.18;;;1.50;;
77206;SDS011;66190;50.708;7.906;2023-07-30T05:50:18;5.63;;;1.30;;
77206;SDS011;66190;50.708;7.906;2023-07-30T05:52:44;7.77;;;1.60;;
77206;SDS011;66190;50.708;7.906;2023-07-30T05:55:09;6.07;;;2.00;;
77206;SDS011;66190;50.708;7.906;2023-07-30T05:57:35;5.35;;;1.60;;
77206;SDS011;66190;50.708;7.906;2023-07-30T06:00:00;5.20;;;1.80;;
77206;SDS011;66190;50.708;7.906;2023-07-30T06:02:26;5.70;;;1.60;;
77206;SDS011;66190;50.708;7.906;2023-07-30T06:04:51;6.43;;;1.77;;
77206;SDS011;66190;50.708;7.906;2023-07-30T06:07:17;9.00;;;2.00;;
77206;SDS011;66190;50.708;7.906;2023-07-30T06:09:42;6.70;;;1.53;;
77206;SDS011;66190;50.708;7.906;2023-07-30T06:12:07;5.37;;;1.50;;
77206;SDS011;66190;50.708;7.906;2023-07-30T06:14:33;8.53;;;1.67;;
77206;SDS011;66190;50.708;7.906;2023-07-30T06:16:58;6.10;;;1.90;;
77206;SDS011;66190;50.708;7.906;2023-07-30T06:19:24;5.22;;;1.40;;
77206;SDS011;66190;50.708;7.906;2023-07-30T06:21:51;5.00;;;1.10;;
77206;SDS011;66190;50.708;7.906;2023-07-30T06:24:16;5.97;;;1.63;;
77206;SDS011;66190;50.708;7.906;2023-07-30T06:26:42;6.73;;;1.80;;
77206;SDS011;66190;50.708;7.906;2023-07-30T06:29:07;6.00;;;1.73;;
77206;SDS011;66190;50.708;7.906;2023-07-30T06:31:33;5.47;;;2.10;;
77206;SDS011;66190;50.708;7.906;2023-07-30T06:33:58;5.43;;;1.57;;
77206;SDS011;66190;50.708;7.906;2023-07-30T06:36:24;6.03;;;1.83;;
77206;SDS011;66190;50.708;7.906;2023-07-30T06:38:49;6.00;;;1.83;;
77206;SDS011;66190;50.708;7.906;2023-07-30T06:41:14;5.80;;;1.57;;
77206;SDS011;66190;50.708;7.906;2023-07-30T06:43:40;4.70;;;1.30;;
77206;SDS011;66190;50.708;7.906;2023-07-30T06:46:05;5.68;;;1.60;;
77206;SDS011;66190;50.708;7.906;2023-07-30T06:48:30;6.37;;;1.73;;
77206;SDS011;66190;50.708;7.906;2023-07-30T06:50:56;6.63;;;1.60;;
77206;SDS011;66190;50.708;7.906;2023-07-30T06:53:22;6.88;;;1.70;;
77206;SDS011;66190;50.708;7.906;2023-07-30T06:55:47;6.47;;;1.60;;
77206;SDS011;66190;50.708;7.906;2023-07-30T06:58:13;5.83;;;1.30;;
77206;SDS011;66190;50.708;7.906;2023-07-30T07:00:39;6.17;;;1.80;;
77206;SDS011;66190;50.708;7.906;2023-07-30T07:03:04;5.32;;;1.30;;
77206;SDS011;66190;50.708;7.906;2023-07-30T07:05:29;5.80;;;1.50;;
77206;SDS011;66190;50.708;7.906;2023-07-30T07:07:55;6.40;;;1.50;;
77206;SDS011;66190;50.708;7.906;2023-07-30T07:10:20;7.00;;;1.90;;
77206;SDS011;66190;50.708;7.906;2023-07-30T07:12:46;5.78;;;1.50;;
77206;SDS011;66190;50.708;7.906;2023-07-30T07:15:12;6.90;;;1.70;;
77206;SDS011;66190;50.708;7.906;2023-07-30T07:17:37;8.43;;;1.88;;
77206;SDS011;66190;50.708;7.906;2023-07-30T07:20:03;7.17;;;1.60;;
77206;SDS011;66190;50.708;7.906;2023-07-30T07:22:30;7.18;;;1.45;;
77206;SDS011;66190;50.708;7.906;2023-07-30T07:24:55;5.60;;;1.43;;
77206;SDS011;66190;50.708;7.906;2023-07-30T07:27:21;7.93;;;1.60;;
77206;SDS011;66190;50.708;7.906;2023-07-30T07:29:49;7.55;;;1.60;;
77206;SDS011;66190;50.708;7.906;2023-07-30T07:32:14;5.72;;;1.85;;
77206;SDS011;66190;50.708;7.906;2023-07-30T07:34:40;7.20;;;1.47;;
77206;SDS011;66190;50.708;7.906;2023-07-30T07:37:05;8.33;;;1.80;;
77206;SDS011;66190;50.708;7.906;2023-07-30T07:39:32;5.87;;;1.80;;
77206;SDS011;66190;50.708;7.906;2023-07-30T07:41:58;8.02;;;2.00;;
77206;SDS011;66190;50.708;7.906;2023-07-30T07:44:24;8.60;;;1.87;;
77206;SDS011;66190;50.708;7.906;2023-07-30T07:46:49;6.38;;;1.20;;
77206;SDS011;66190;50.708;7.906;2023-07-30T07:49:14;7.63;;;1.70;;
77206;SDS011;66190;50.708;7.906;2023-07-30T07:51:40;8.30;;;1.70;;
77206;SDS011;66190;50.708;7.906;2023-07-30T07:54:05;6.40;;;1.90;;
77206;SDS011;66190;50.708;7.906;2023-07-30T07:56:31;8.07;;;2.60;;
77206;SDS011;66190;50.708;7.906;2023-07-30T07:58:57;8.57;;;1.80;;
77206;SDS011;66190;50.708;7.906;2023-07-30T08:01:22;5.72;;;1.65;;
77206;SDS011;66190;50.708;7.906;2023-07-30T08:03:48;5.30;;;2.07;;
77206;SDS011;66190;50.708;7.906;2023-07-30T08:06:13;6.47;;;1.87;;
77206;SDS011;66190;50.708;7.906;2023-07-30T08:08:38;5.70;;;1.67;;
77206;SDS011;66190;50.708;7.906;2023-07-30T08:11:05;9.33;;;1.93;;
77206;SDS011;66190;50.708;7.906;2023-07-30T08:13:31;6.80;;;1.85;;
77206;SDS011;66190;50.708;7.906;2023-07-30T08:15:57;5.97;;;1.40;;
77206;SDS011;66190;50.708;7.906;2023-07-30T08:18:22;7.73;;;1.87;;
77206;SDS011;66190;50.708;7.906;2023-07-30T08:20:49;6.47;;;1.63;;
77206;SDS011;66190;50.708;7.906;2023-07-30T08:23:15;6.72;;;1.38;;
77206;SDS011;66190;50.708;7.906;2023-07-30T08:25:40;6.20;;;1.60;;
77206;SDS011;66190;50.708;7.906;2023-07-30T08:28:05;4.80;;;1.30;;
77206;SDS011;66190;50.708;7.906;2023-07-30T08:30:31;4.47;;;1.30;;
77206;SDS011;66190;50.708;7.906;2023-07-30T08:32:56;6.30;;;1.10;;
77206;SDS011;66190;50.708;7.906;2023-07-30T08:35:21;4.77;;;1.37;;
77206;SDS011;66190;50.708;7.906;2023-07-30T08:37:47;5.93;;;1.63;;
77206;SDS011;66190;50.708;7.906;2023-07-30T08:40:12;6.47;;;1.83;;
77206;SDS011;66190;50.708;7.906;2023-07-30T08:42:39;4.88;;;1.27;;
77206;SDS011;66190;50.708;7.906;2023-07-30T08:45:05;4.80;;;1.48;;
77206;SDS011;66190;50.708;7.906;2023-07-30T08:47:33;4.83;;;1.10;;
77206;SDS011;66190;50.708;7.906;2023-07-30T08:50:00;4.55;;;1.10;;
77206;SDS011;66190;50.708;7.906;2023-07-30T08:52:25;6.90;;;0.80;;
77206;SDS011;66190;50.708;7.906;2023-07-30T08:54:51;3.55;;;0.80;;
77206;SDS011;66190;50.708;7.906;2023-07-30T08:57:17;3.55;;;0.95;;
77206;SDS011;66190;50.708;7.906;2023-07-30T08:59:46;4.20;;;1.00;;
77206;SDS011;66190;50.708;7.906;2023-07-30T09:02:21;3.33;;;0.80;;
77206;SDS011;66190;50.708;7.906;2023-07-30T09:04:53;5.43;;;1.00;;
77206;SDS011;66190;50.708;7.906;2023-07-30T09:07:23;4.55;;;1.00;;
77206;SDS011;66190;50.708;7.906;2023-07-30T09:09:49;3.47;;;0.80;;
77206;SDS011;66190;50.708;7.906;2023-07-30T09:12:15;4.63;;;0.90;;
77206;SDS011;66190;50.708;7.906;2023-07-30T09:14:41;5.23;;;1.10;;
77206;SDS011;66190;50.708;7.906;2023-07-30T09:17:10;4.40;;;1.00;;
77206;SDS011;66190;50.708;7.906;2023-07-30T09:19:41;5.63;;;1.00;;
77206;SDS011;66190;50.708;7.906;2023-07-30T09:22:07;5.47;;;1.33;;
77206;SDS011;66190;50.708;7.906;2023-07-30T09:24:32;4.53;;;1.15;;
77206;SDS011;66190;50.708;7.906;2023-07-30T09:27:00;5.60;;;1.20;;
77206;SDS011;66190;50.708;7.906;2023-07-30T09:29:27;4.38;;;1.02;;
77206;SDS011;66190;50.708;7.906;2023-07-30T09:31:53;5.43;;;1.30;;
77206;SDS011;66190;50.708;7.906;2023-07-30T09:34:21;5.13;;;1.42;;
77206;SDS011;66190;50.708;7.906;2023-07-30T09:36:48;5.70;;;1.45;;
77206;SDS011;66190;50.708;7.906;2023-07-30T09:39:19;7.28;;;1.63;;
77206;SDS011;66190;50.708;7.906;2023-07-30T09:41:46;4.60;;;1.15;;
77206;SDS011;66190;50.708;7.906;2023-07-30T09:44:12;4.70;;;1.23;;
77206;SDS011;66190;50.708;7.906;2023-07-30T09:46:41;6.75;;;1.48;;
77206;SDS011;66190;50.708;7.906;2023-07-30T09:49:08;4.40;;;1.20;;
77206;SDS011;66190;50.708;7.906;2023-07-30T09:51:34;6.47;;;1.30;;
77206;SDS011;66190;50.708;7.906;2023-07-30T09:54:02;6.38;;;1.48;;
77206;SDS011;66190;50.708;7.906;2023-07-30T09:56:28;4.77;;;1.27;;
77206;SDS011;66190;50.708;7.906;2023-07-30T09:58:53;5.30;;;1.60;;
77206;SDS011;66190;50.708;7.906;2023-07-30T10:01:18;5.35;;;1.27;;
77206;SDS011;66190;50.708;7.906;2023-07-30T10:03:49;7.40;;;1.40;;
77206;SDS011;66190;50.708;7.906;2023-07-30T10:06:14;6.25;;;1.17;;
77206;SDS011;66190;50.708;7.906;2023-07-30T10:08:41;5.63;;;1.20;;
77206;SDS011;66190;50.708;7.906;2023-07-30T10:11:08;6.80;;;1.30;;
77206;SDS011;66190;50.708;7.906;2023-07-30T10:13:36;7.83;;;1.60;;
77206;SDS011;66190;50.708;7.906;2023-07-30T10:16:08;5.47;;;1.50;;
77206;SDS011;66190;50.708;7.906;2023-07-30T10:18:41;7.13;;;1.30;;
77206;SDS011;66190;50.708;7.906;2023-07-30T10:21:08;7.43;;;1.90;;
77206;SDS011;66190;50.708;7.906;2023-07-30T10:23:35;6.65;;;1.58;;
77206;SDS011;66190;50.708;7.906;2023-07-30T10:26:08;7.60;;;1.60;;
77206;SDS011;66190;50.708;7.906;2023-07-30T10:28:35;7.40;;;1.70;;
77206;SDS011;66190;50.708;7.906;2023-07-30T10:31:07;6.65;;;1.50;;
77206;SDS011;66190;50.708;7.906;2023-07-30T10:36:11;6.40;;;1.33;;
77206;SDS011;66190;50.708;7.906;2023-07-30T10:38:36;6.75;;;1.52;;
77206;SDS011;66190;50.708;7.906;2023-07-30T10:41:10;6.67;;;1.63;;
77206;SDS011;66190;50.708;7.906;2023-07-30T10:43:41;6.82;;;1.38;;
77206;SDS011;66190;50.708;7.906;2023-07-30T10:46:09;6.93;;;1.20;;
77206;SDS011;66190;50.708;7.906;2023-07-30T10:48:38;9.30;;;2.03;;
77206;SDS011;66190;50.708;7.906;2023-07-30T10:51:06;7.55;;;1.88;;
77206;SDS011;66190;50.708;7.906;2023-07-30T10:53:35;7.63;;;1.73;;
77206;SDS011;66190;50.708;7.906;2023-07-30T10:56:07;7.32;;;1.45;;
77206;SDS011;66190;50.708;7.906;2023-07-30T10:58:34;8.13;;;2.17;;
77206;SDS011;66190;50.708;7.906;2023-07-30T11:01:02;5.80;;;1.50;;
77206;SDS011;66190;50.708;7.906;2023-07-30T11:03:28;6.05;;;1.40;;
77206;SDS011;66190;50.708;7.906;2023-07-30T11:05:54;5.03;;;1.40;;
77206;SDS011;66190;50.708;7.906;2023-07-30T11:11:01;6.90;;;1.55;;
77206;SDS011;66190;50.708;7.906;2023-07-30T11:13:27;8.43;;;1.83;;
77206;SDS011;66190;50.708;7.906;2023-07-30T11:15:52;7.10;;;1.70;;
77206;SDS011;66190;50.708;7.906;2023-07-30T11:18:18;8.40;;;1.77;;
77206;SDS011;66190;50.708;7.906;2023-07-30T11:20:43;5.90;;;1.67;;
77206;SDS011;66190;50.708;7.906;2023-07-30T11:23:21;6.20;;;1.37;;
77206;SDS011;66190;50.708;7.906;2023-07-30T11:25:48;8.13;;;1.50;;
77206;SDS011;66190;50.708;7.906;2023-07-30T11:28:14;7.32;;;1.50;;
77206;SDS011;66190;50.708;7.906;2023-07-30T11:30:51;7.05;;;1.50;;
77206;SDS011;66190;50.708;7.906;2023-07-30T11:33:17;6.40;;;1.80;;
77206;SDS011;66190;50.708;7.906;2023-07-30T11:35:42;5.67;;;1.67;;
77206;SDS011;66190;50.708;7.906;2023-07-30T11:38:08;11.25;;;1.65;;
77206;SDS011;66190;50.708;7.906;2023-07-30T11:40:34;7.37;;;1.40;;
77206;SDS011;66190;50.708;7.906;2023-07-30T11:42:59;7.40;;;1.80;;
77206;SDS011;66190;50.708;7.906;2023-07-30T11:45:25;5.50;;;1.40;;
77206;SDS011;66190;50.708;7.906;2023-07-30T11:47:51;6.30;;;1.30;;
77206;SDS011;66190;50.708;7.906;2023-07-30T11:50:17;7.32;;;1.60;;
77206;SDS011;66190;50.708;7.906;2023-07-30T11:55:46;7.88;;;1.13;;
77206;SDS011;66190;50.708;7.906;2023-07-30T11:58:12;7.77;;;1.97;;
77206;SDS011;66190;50.708;7.906;2023-07-30T12:00:38;6.55;;;1.20;;
77206;SDS011;66190;50.708;7.906;2023-07-30T12:03:06;7.10;;;1.30;;
77206;SDS011;66190;50.708;7.906;2023-07-30T12:05:35;7.43;;;1.10;;
77206;SDS011;66190;50.708;7.906;2023-07-30T12:08:02;5.60;;;1.10;;
77206;SDS011;66190;50.708;7.906;2023-07-30T12:13:11;6.82;;;1.20;;
77206;SDS011;66190;50.708;7.906;2023-07-30T12:15:53;5.85;;;1.23;;
77206;SDS011;66190;50.708;7.906;2023-07-30T12:18:19;9.97;;;1.43;;
77206;SDS011;66190;50.708;7.906;2023-07-30T12:20:48;4.53;;;0.98;;
77206;SDS011;66190;50.708;7.906;2023-07-30T12:23:15;6.13;;;1.17;;
77206;SDS011;66190;50.708;7.906;2023-07-30T12:25:41;6.47;;;1.30;;
77206;SDS011;66190;50.708;7.906;2023-07-30T12:28:06;5.17;;;1.27;;
77206;SDS011;66190;50.708;7.906;2023-07-30T12:30:32;4.77;;;1.30;;
77206;SDS011;66190;50.708;7.906;2023-07-30T12:32:58;4.53;;;1.00;;
77206;SDS011;66190;50.708;7.906;2023-07-30T12:35:23;9.40;;;1.30;;
77206;SDS011;66190;50.708;7.906;2023-07-30T12:37:49;4.13;;;1.00;;
77206;SDS011;66190;50.708;7.906;2023-07-30T12:40:15;6.87;;;0.90;;
77206;SDS011;66190;50.708;7.906;2023-07-30T12:42:41;13.77;;;2.08;;
77206;SDS011;66190;50.708;7.906;2023-07-30T12:45:06;5.60;;;1.17;;
77206;SDS011;66190;50.708;7.906;2023-07-30T12:47:32;6.57;;;1.57;;
77206;SDS011;66190;50.708;7.906;2023-07-30T12:50:00;7.05;;;0.90;;
77206;SDS011;66190;50.708;7.906;2023-07-30T12:52:25;4.93;;;0.98;;
77206;SDS011;66190;50.708;7.906;2023-07-30T12:54:51;4.77;;;1.07;;
77206;SDS011;66190;50.708;7.906;2023-07-30T12:57:16;7.17;;;1.20;;
77206;SDS011;66190;50.708;7.906;2023-07-30T12:59:41;5.40;;;1.10;;
77206;SDS011;66190;50.708;7.906;2023-07-30T13:02:07;6.07;;;1.10;;
77206;SDS011;66190;50.708;7.906;2023-07-30T13:04:32;6.47;;;1.10;;
77206;SDS011;66190;50.708;7.906;2023-07-30T13:06:58;7.87;;;1.30;;
77206;SDS011;66190;50.708;7.906;2023-07-30T13:09:23;8.20;;;1.10;;
77206;SDS011;66190;50.708;7.906;2023-07-30T13:11:48;6.50;;;1.30;;
77206;SDS011;66190;50.708;7.906;2023-07-30T13:14:14;5.93;;;1.23;;
77206;SDS011;66190;50.708;7.906;2023-07-30T13:16:39;6.03;;;1.23;;
77206;SDS011;66190;50.708;7.906;2023-07-30T13:19:04;6.67;;;1.37;;
77206;SDS011;66190;50.708;7.906;2023-07-30T13:21:30;4.97;;;1.13;;
77206;SDS011;66190;50.708;7.906;2023-07-30T13:23:55;5.68;;;1.15;;
77206;SDS011;66190;50.708;7.906;2023-07-30T13:26:21;7.53;;;1.20;;
77206;SDS011;66190;50.708;7.906;2023-07-30T13:28:46;6.33;;;1.37;;
77206;SDS011;66190;50.708;7.906;2023-07-30T13:31:11;4.83;;;1.23;;
77206;SDS011;66190;50.708;7.906;2023-07-30T13:33:37;4.18;;;1.02;;
77206;SDS011;66190;50.708;7.906;2023-07-30T13:36:03;4.70;;;0.80;;
77206;SDS011;66190;50.708;7.906;2023-07-30T13:38:29;7.32;;;1.38;;
77206;SDS011;66190;50.708;7.906;2023-07-30T13:40:54;9.50;;;1.13;;
77206;SDS011;66190;50.708;7.906;2023-07-30T13:43:19;4.80;;;1.17;;
77206;SDS011;66190;50.708;7.906;2023-07-30T13:45:45;6.07;;;1.10;;
77206;SDS011;66190;50.708;7.906;2023-07-30T13:48:15;7.13;;;1.25;;
77206;SDS011;66190;50.708;7.906;2023-07-30T13:50:40;6.27;;;1.00;;
77206;SDS011;66190;50.708;7.906;2023-07-30T13:53:05;6.23;;;1.00;;
77206;SDS011;66190;50.708;7.906;2023-07-30T13:55:31;7.25;;;1.00;;
77206;SDS011;66190;50.708;7.906;2023-07-30T13:57:56;6.37;;;1.23;;
77206;SDS011;66190;50.708;7.906;2023-07-30T14:00:21;4.70;;;1.10;;
77206;SDS011;66190;50.708;7.906;2023-07-30T14:02:47;5.03;;;1.13;;
77206;SDS011;66190;50.708;7.906;2023-07-30T14:05:13;4.68;;;0.90;;
77206;SDS011;66190;50.708;7.906;2023-07-30T14:07:38;6.10;;;1.27;;
77206;SDS011;66190;50.708;7.906;2023-07-30T14:10:05;4.13;;;1.13;;
77206;SDS011;66190;50.708;7.906;2023-07-30T14:12:31;5.80;;;1.20;;
77206;SDS011;66190;50.708;7.906;2023-07-30T14:14:56;5.57;;;1.40;;
77206;SDS011;66190;50.708;7.906;2023-07-30T14:17:21;6.80;;;1.47;;
77206;SDS011;66190;50.708;7.906;2023-07-30T14:19:47;4.72;;;0.93;;
77206;SDS011;66190;50.708;7.906;2023-07-30T14:22:12;5.83;;;1.20;;
77206;SDS011;66190;50.708;7.906;2023-07-30T14:24:38;5.03;;;0.93;;
77206;SDS011;66190;50.708;7.906;2023-07-30T14:27:05;5.65;;;1.10;;
77206;SDS011;66190;50.708;7.906;2023-07-30T14:29:30;5.43;;;1.43;;
77206;SDS011;66190;50.708;7.906;2023-07-30T14:31:56;5.97;;;1.10;;
77206;SDS011;66190;50.708;7.906;2023-07-30T14:34:21;5.70;;;1.20;;
77206;SDS011;66190;50.708;7.906;2023-07-30T14:36:46;5.73;;;1.07;;
77206;SDS011;66190;50.708;7.906;2023-07-30T14:39:12;4.40;;;1.10;;
77206;SDS011;66190;50.708;7.906;2023-07-30T14:41:37;7.13;;;1.27;;
77206;SDS011;66190;50.708;7.906;2023-07-30T14:44:03;5.40;;;0.95;;
77206;SDS011;66190;50.708;7.906;2023-07-30T14:46:29;5.30;;;1.20;;
77206;SDS011;66190;50.708;7.906;2023-07-30T14:48:54;4.72;;;1.08;;
77206;SDS011;66190;50.708;7.906;2023-07-30T14:51:20;5.10;;;1.20;;